Nacogdoches, TX

11:31 AM CST on March 02, 2015 (GMT -0600)
South Side | Change Station
CLOSE
Current Station
Personal Weather Station
Location: Nacogdoches, TX
Elevation: 331 ft
Nearby Weather Stations

Elev 331 ft 31.59 °N, 94.66 °W | Updated 2 seconds ago

Overcast
Overcast
46.9 °F
Feels Like 47 °F
N
0.0
Wind Variable Wind from NW
Gusts 0.0 mph

Today
High -- | Low -- °F
--% Chance of Precip.
Yesterday
High -- | Low -- °F
Precip. -- in
6:44 AM 6:17 PM
Waxing Gibbous, 92% visible
Pressure 30.34 in
Visibility 6.0 miles
Clouds Overcast 400 ft
Windchill 47 °F
Dew Point 47 °F
Humidity 99%
Rainfall 0.00 in
Snow Depth Not available.
UV 2 out of 12
Pollen 4.40 out of 12
Air Quality Not available.
Flu Activity Not available.
METAR KOCH 021715Z AUTO 05005KT 6SM OVC004 07/06 A3034 RMK AO1

More Conditions Fewer Conditions

Pressure 30.34 in
Visibility 6.0 miles
Clouds Overcast 400 ft
Windchill 47 °F
Dew Point 47 °F
Humidity 99%
Rainfall 0.00 in
Snow Depth Not available.
UV 2 out of 12
Pollen 4.40 out of 12
Air Quality Not available.
Flu Activity Not available.
METAR KOCH 021715Z AUTO 05005KT 6SM OVC004 07/06 A3034 RMK AO1

More Conditions Fewer Conditions

Nowcast | as of 10:47 am CST on March 2, 2015

Scattered areas of light rain continue mainly from nachitoches to Clark in in Louisiana...to Arkansas and Magnolia AR. Also...movement of this light rain was to the northeast near 30 mph. Otherwise...light drizzle and light fog continue over the entire area with little change anytime soon. Additional rainfall amounts will generally be on the order of a trace to a few hundreths of an inch.

×

10-Day Weather Forecast

Almanac

Astronomy

Mar. 02, 2015 Rise Set
Actual Time
Civil Twilight
Nautical Twilight
Astronomical Twilight
Moon
Length of Visible Light
Length of Day
Tomorrow will be .
, % of the Moon is Illuminated

Today's Extremes

State Highs State Lows

Community

WunderPhotos

Upload Photos

1,801,877 photos uploaded!

WunderBlogs® & News

Nearby

Air Quality

  Air Quality AQ Index Pollutant
Not available.

Snow Depth

Station Depth Elevation

Earthquake Activity

City Distance Mag. Time & Date
Minimum magnitude displayed is 2.5.

Coastal Water Temperatures

Place Temperature

Nearby Weather Stations